Terminal Aerodrome Forecast
Issued by NWS Sterling, VA

Current Version | Previous Version | Graphics & Text | Print | Product List | Glossary On
Versions: 1 2 3 4 5 6 7 8 9 10 11 12 13 14 15 16 17 18 19 20 21 22 23 24 25 26
997
FTUS41 KLWX 221724
TAFDCA
TAF
KDCA 221724Z 2218/2318 20006KT P6SM SKC
     FM230900 15004KT 4SM BR BKN250
     FM231100 VRB03KT 4SM BR OVC060
     FM231400 15005KT P6SM BKN060
     FM231700 16009KT P6SM BKN045=

USA.gov is the U.S. government's official web portal to all federal, state and local government web resources and services.